Time;durP1;ratioP1;P1;durP2;ratioP2;P2;SDS_P1;SDS_P2;PMS_P1;PMS_P2;Temp;Humidity;BMP_temperature;BMP_pressure;BME280_temperature;BME280_humidity;BME280_pressure;Samples;Min_cycle;Max_cycle;Signal;HPM_P1;HPM_P2
2022/03/19 00:01:27;;;;;;;13.25;6.68;;;7.70;92.50;;;;;;4992173;28;20140;-48
2022/03/19 00:04:11;;;;;;;13.48;6.75;;;7.60;92.60;;;;;;4992491;28;20053;-49
2022/03/19 00:06:55;;;;;;;11.13;7.57;;;7.60;92.70;;;;;;4983130;28;20030;-46
2022/03/19 00:09:41;;;;;;;11.75;6.85;;;7.20;93.80;;;;;;4992629;28;20038;-50
2022/03/19 00:12:25;;;;;;;14.60;7.80;;;7.20;93.90;;;;;;4992071;28;20133;-50
2022/03/19 00:15:10;;;;;;;15.82;7.05;;;7.10;94.00;;;;;;4992750;28;20058;-46
2022/03/19 00:17:57;;;;;;;14.02;7.07;;;7.00;94.70;;;;;;4993067;28;20092;-47
2022/03/19 00:20:41;;;;;;;13.13;7.55;;;6.90;94.90;;;;;;4988377;28;20042;-47
2022/03/19 00:23:25;;;;;;;13.68;6.75;;;6.80;95.40;;;;;;4992359;28;20533;-51
2022/03/19 00:26:09;;;;;;;14.80;6.97;;;6.70;95.70;;;;;;4990533;28;20105;-45
2022/03/19 00:28:53;;;;;;;12.77;7.45;;;6.60;96.10;;;;;;4989531;28;20061;-46
2022/03/19 00:31:38;;;;;;;16.30;8.23;;;6.70;96.10;;;;;;4987941;28;20049;-46
2022/03/19 00:34:22;;;;;;;16.80;7.15;;;6.60;96.40;;;;;;4990516;28;20041;-46
2022/03/19 00:37:06;;;;;;;9.82;7.25;;;6.70;96.70;;;;;;4991340;28;20032;-47
2022/03/19 00:39:50;;;;;;;11.80;7.70;;;6.70;96.40;;;;;;4989381;28;20037;-47
2022/03/19 00:42:34;;;;;;;12.20;7.20;;;6.70;96.30;;;;;;4984511;28;20069;-44
2022/03/19 00:45:18;;;;;;;11.30;6.23;;;6.70;96.30;;;;;;4993502;28;20065;-49
2022/03/19 00:48:03;;;;;;;13.57;7.10;;;6.70;96.30;;;;;;4994559;28;20104;-49
2022/03/19 00:50:47;;;;;;;16.92;8.05;;;6.80;96.20;;;;;;4980546;28;20074;-46
2022/03/19 00:53:30;;;;;;;11.20;7.20;;;6.70;96.40;;;;;;4993489;28;20037;-45
2022/03/19 00:56:15;;;;;;;12.70;6.45;;;6.70;96.30;;;;;;4995267;28;20037;-48
2022/03/19 00:58:59;;;;;;;13.32;6.32;;;6.70;96.40;;;;;;4988131;28;20045;-48
2022/03/19 01:01:43;;;;;;;11.68;6.95;;;6.60;96.70;;;;;;4985836;28;20525;-47
2022/03/19 01:04:27;;;;;;;14.82;7.55;;;6.70;96.70;;;;;;4995039;28;20041;-47
2022/03/19 01:07:10;;;;;;;13.38;7.63;;;6.80;96.30;;;;;;5008730;28;20525;-46
2022/03/19 01:09:55;;;;;;;12.27;7.65;;;6.90;96.00;;;;;;4997023;28;20060;-47
2022/03/19 01:12:39;;;;;;;15.13;7.73;;;6.90;96.10;;;;;;4995625;28;20045;-47
2022/03/19 01:15:25;;;;;;;14.32;6.93;;;6.90;96.20;;;;;;4997269;28;20057;-50
2022/03/19 01:18:09;;;;;;;17.02;6.97;;;6.90;96.40;;;;;;4996779;28;20100;-51
2022/03/19 01:20:53;;;;;;;11.27;6.93;;;6.90;96.50;;;;;;4976703;28;20042;-50
2022/03/19 01:23:37;;;;;;;12.63;6.93;;;6.90;96.40;;;;;;5006871;28;20092;-48
2022/03/19 01:26:21;;;;;;;18.40;6.55;;;7.00;96.50;;;;;;4995928;28;20084;-48
2022/03/19 01:29:05;;;;;;;9.52;6.47;;;7.00;96.50;;;;;;5002228;28;20117;-45
2022/03/19 01:31:49;;;;;;;11.75;6.85;;;7.10;96.40;;;;;;4994378;28;20086;-50
2022/03/19 01:34:34;;;;;;;13.30;6.88;;;7.10;96.30;;;;;;4987437;28;20037;-46
2022/03/19 01:37:18;;;;;;;13.10;7.30;;;7.10;96.30;;;;;;4993925;28;20029;-45
2022/03/19 01:40:04;;;;;;;13.05;6.93;;;7.20;96.70;;;;;;4978937;28;20041;-47
2022/03/19 01:42:50;;;;;;;11.25;6.32;;;7.10;97.10;;;;;;4994886;28;20077;-48
2022/03/19 01:45:34;;;;;;;8.82;6.55;;;7.10;97.30;;;;;;4995518;28;20041;-47
2022/03/19 01:48:19;;;;;;;17.75;8.63;;;7.10;97.40;;;;;;4995934;28;20167;-49
2022/03/19 01:51:03;;;;;;;12.85;7.05;;;7.10;97.50;;;;;;4995119;28;20037;-46
2022/03/19 01:53:47;;;;;;;18.98;7.68;;;7.00;97.80;;;;;;5008857;28;20065;-47
2022/03/19 01:56:32;;;;;;;12.25;6.63;;;6.90;97.90;;;;;;4995704;28;20457;-48
2022/03/19 01:59:21;;;;;;;13.52;6.80;;;6.90;97.80;;;;;;4995576;28;20065;-48
2022/03/19 02:02:08;;;;;;;11.13;6.00;;;6.90;97.90;;;;;;4993584;28;20058;-47
2022/03/19 02:04:53;;;;;;;14.95;7.32;;;6.90;97.90;;;;;;4994818;28;20049;-45
2022/03/19 02:07:37;;;;;;;16.45;8.00;;;6.90;98.00;;;;;;4995369;28;20038;-47
2022/03/19 02:10:26;;;;;;;13.60;6.45;;;6.90;97.90;;;;;;4993751;28;20037;-48
2022/03/19 02:13:10;;;;;;;14.35;6.95;;;6.80;97.90;;;;;;4993665;28;20158;-52
2022/03/19 02:15:54;;;;;;;18.27;7.65;;;6.80;98.10;;;;;;4994132;28;20037;-45
2022/03/19 02:18:38;;;;;;;12.65;5.78;;;6.70;98.20;;;;;;4994027;28;20149;-48
2022/03/19 02:21:22;;;;;;;13.43;7.10;;;6.70;98.00;;;;;;4993607;28;20117;-45
2022/03/19 02:27:10;;;;;;;14.00;6.30;;;6.60;98.30;;;;;;4993845;28;20042;-45
2022/03/19 02:29:56;;;;;;;14.30;6.60;;;6.60;98.30;;;;;;4991683;28;20149;-47
2022/03/19 02:32:49;;;;;;;11.90;6.57;;;6.50;98.50;;;;;;4993854;28;20125;-46
2022/03/19 02:35:33;;;;;;;13.55;6.75;;;6.50;98.60;;;;;;4994542;28;20037;-46
2022/03/19 02:38:18;;;;;;;12.60;6.60;;;6.60;98.50;;;;;;4993961;28;20118;-54
2022/03/19 02:41:05;;;;;;;15.88;6.55;;;6.50;98.60;;;;;;4993554;28;20116;-52
2022/03/19 02:43:49;;;;;;;15.48;5.95;;;6.50;98.70;;;;;;4992348;28;20053;-46
2022/03/19 02:46:41;;;;;;;17.52;6.70;;;6.40;98.80;;;;;;4993215;28;20176;-46
2022/03/19 02:49:26;;;;;;;15.00;6.30;;;6.40;98.80;;;;;;4993226;28;20073;-46
2022/03/19 02:52:10;;;;;;;18.63;6.65;;;6.30;98.80;;;;;;4993139;28;20041;-51
2022/03/19 02:54:54;;;;;;;14.25;7.72;;;6.30;98.90;;;;;;4993024;28;20041;-50
2022/03/19 02:57:38;;;;;;;12.38;6.63;;;6.30;98.90;;;;;;5006513;28;20476;-47
2022/03/19 03:00:23;;;;;;;15.52;6.60;;;6.20;99.00;;;;;;4993064;28;20137;-46
2022/03/19 03:03:07;;;;;;;13.88;7.10;;;6.10;99.20;;;;;;4992121;28;20045;-46
2022/03/19 03:05:51;;;;;;;17.00;7.75;;;6.10;99.30;;;;;;4973480;28;20042;-46
2022/03/19 03:08:36;;;;;;;17.23;7.90;;;6.10;99.30;;;;;;4975613;28;20042;-46
2022/03/19 03:11:20;;;;;;;18.17;8.20;;;6.00;99.40;;;;;;5006356;28;20037;-45
2022/03/19 03:14:06;;;;;;;12.30;7.57;;;6.10;99.40;;;;;;4993774;28;20335;-46
2022/03/19 03:16:52;;;;;;;15.23;7.82;;;6.00;99.80;;;;;;4995530;28;20126;-47
2022/03/19 03:19:37;;;;;;;16.55;8.70;;;6.00;99.50;;;;;;5008161;28;20703;-44
2022/03/19 03:22:21;;;;;;;15.27;7.18;;;5.90;99.60;;;;;;4994975;28;20589;-46
2022/03/19 03:25:06;;;;;;;18.23;7.57;;;5.90;99.80;;;;;;4993482;28;20053;-48
2022/03/19 03:27:51;;;;;;;18.65;8.25;;;5.90;99.80;;;;;;4977089;28;20408;-47
2022/03/19 03:30:35;;;;;;;17.40;8.43;;;5.90;99.80;;;;;;4992463;28;20065;-48
2022/03/19 03:33:20;;;;;;;20.80;9.52;;;5.80;99.90;;;;;;4992644;28;20049;-47
2022/03/19 03:36:04;;;;;;;20.10;8.70;;;5.80;99.90;;;;;;4992697;28;20441;-47
2022/03/19 03:38:49;;;;;;;20.48;8.73;;;5.80;99.90;;;;;;4992532;28;20276;-50
2022/03/19 03:41:34;;;;;;;15.32;8.50;;;5.70;99.90;;;;;;4993923;28;20037;-44
2022/03/19 03:44:18;;;;;;;;;;;5.60;99.90;;;;;;4996433;28;20053;-48
2022/03/19 03:47:03;;;;;;;15.73;8.80;;;5.60;99.90;;;;;;4992797;28;19961;-48
2022/03/19 03:49:47;;;;;;;13.70;7.78;;;5.60;99.90;;;;;;4992730;28;20033;-47
2022/03/19 03:52:31;;;;;;;20.30;8.35;;;5.50;99.90;;;;;;4992461;28;20093;-46
2022/03/19 03:55:15;;;;;;;19.88;7.53;;;5.50;99.90;;;;;;4992186;28;20037;-46
2022/03/19 03:58:01;;;;;;;15.67;7.40;;;5.50;99.90;;;;;;4992307;28;20057;-45
2022/03/19 04:00:45;;;;;;;16.70;7.38;;;5.50;99.90;;;;;;4992143;28;20276;-47
2022/03/19 04:03:29;;;;;;;15.68;6.70;;;5.50;99.90;;;;;;4976946;28;20042;-51
2022/03/19 04:06:13;;;;;;;12.65;7.20;;;5.40;99.90;;;;;;4982701;28;20065;-49
2022/03/19 04:08:57;;;;;;;15.02;6.63;;;5.40;99.90;;;;;;4988211;28;20086;-53
2022/03/19 04:11:41;;;;;;;15.30;7.32;;;5.40;99.90;;;;;;4992452;28;20069;-47
2022/03/19 04:14:25;;;;;;;20.65;7.78;;;5.40;99.90;;;;;;4992663;28;20158;-48
2022/03/19 04:17:09;;;;;;;13.82;7.15;;;5.40;99.90;;;;;;4987502;28;20124;-47
2022/03/19 04:19:53;;;;;;;14.82;7.95;;;5.40;99.90;;;;;;4996315;28;20436;-48
2022/03/19 04:22:43;;;;;;;18.52;8.18;;;5.30;99.90;;;;;;4987624;28;20440;-48
2022/03/19 04:25:28;;;;;;;19.17;7.55;;;5.30;99.90;;;;;;4996212;28;20434;-47
2022/03/19 04:28:12;;;;;;;15.90;7.20;;;5.30;99.90;;;;;;4996519;28;20037;-47
2022/03/19 04:30:57;;;;;;;;;;;5.20;99.90;;;;;;4997187;28;20037;-51
2022/03/19 04:33:41;;;;;;;15.65;7.30;;;5.30;99.90;;;;;;4997191;28;19917;-45
2022/03/19 04:36:32;;;;;;;19.33;8.30;;;5.20;99.90;;;;;;4995795;28;20437;-47
2022/03/19 04:39:16;;;;;;;14.68;7.50;;;5.20;99.90;;;;;;4995601;28;20044;-47
2022/03/19 04:42:00;;;;;;;18.95;7.55;;;5.30;99.90;;;;;;4995470;28;20038;-48
2022/03/19 04:44:45;;;;;;;19.88;8.70;;;5.30;99.90;;;;;;4994924;28;20490;-46
2022/03/19 04:47:29;;;;;;;21.30;8.88;;;5.30;99.90;;;;;;4992193;28;20077;-46
2022/03/19 04:50:13;;;;;;;21.90;8.68;;;5.30;99.90;;;;;;5005890;28;20078;-49
2022/03/19 04:52:58;;;;;;;22.30;8.05;;;5.30;99.90;;;;;;4995122;28;20093;-45
2022/03/19 04:55:42;;;;;;;15.57;6.60;;;5.30;99.90;;;;;;4995264;28;20045;-48
2022/03/19 04:58:27;;;;;;;19.92;7.22;;;5.30;99.90;;;;;;4994361;28;20049;-49
2022/03/19 05:01:11;;;;;;;17.45;6.65;;;5.20;99.90;;;;;;4991873;28;20069;-50
2022/03/19 05:03:55;;;;;;;12.10;6.50;;;5.20;99.90;;;;;;4994721;28;20037;-47
2022/03/19 05:06:39;;;;;;;13.25;6.25;;;5.20;99.90;;;;;;4995060;28;20750;-46
2022/03/19 05:12:35;;;;;;;14.82;6.25;;;5.10;99.90;;;;;;4991357;28;20041;-48
2022/03/19 05:15:19;;;;;;;16.42;6.30;;;5.00;99.90;;;;;;4995495;28;20045;-50
2022/03/19 05:18:04;;;;;;;14.63;5.88;;;5.00;99.90;;;;;;4996269;28;20045;-49
2022/03/19 05:20:48;;;;;;;15.00;6.28;;;5.00;99.90;;;;;;4992435;28;20097;-52
2022/03/19 05:23:34;;;;;;;15.95;6.38;;;5.00;99.90;;;;;;4991649;28;20480;-45
2022/03/19 05:26:18;;;;;;;16.17;6.40;;;5.00;99.90;;;;;;4995556;28;20037;-47
2022/03/19 05:29:05;;;;;;;13.98;6.40;;;4.90;99.90;;;;;;4994893;28;20043;-46
2022/03/19 05:31:49;;;;;;;15.23;5.95;;;4.90;99.90;;;;;;4981581;28;20040;-47
2022/03/19 05:34:34;;;;;;;16.52;6.75;;;4.80;99.90;;;;;;4994810;28;20042;-46
2022/03/19 05:37:19;;;;;;;14.90;6.10;;;4.90;99.90;;;;;;4993887;28;20457;-48
2022/03/19 05:40:06;;;;;;;15.40;6.75;;;4.90;99.90;;;;;;4986222;28;20593;-48
2022/03/19 05:42:50;;;;;;;16.48;6.93;;;4.80;99.90;;;;;;4989706;28;20049;-48
2022/03/19 05:45:34;;;;;;;19.13;6.80;;;4.80;99.90;;;;;;4991933;28;20033;-45
2022/03/19 05:48:18;;;;;;;14.57;6.45;;;4.70;99.90;;;;;;4995492;28;20042;-46
2022/03/19 05:51:03;;;;;;;18.58;6.93;;;4.80;99.90;;;;;;4994791;28;20124;-46
2022/03/19 05:53:47;;;;;;;18.00;6.28;;;4.80;99.90;;;;;;4994678;28;20101;-51
2022/03/19 05:56:31;;;;;;;14.05;6.15;;;4.80;99.90;;;;;;4994276;28;20037;-50
2022/03/19 05:59:15;;;;;;;18.65;7.18;;;4.70;99.90;;;;;;4988420;28;20042;-53
2022/03/19 06:02:00;;;;;;;18.40;6.57;;;4.70;99.90;;;;;;4993855;28;20122;-49
2022/03/19 06:04:44;;;;;;;25.75;7.75;;;4.80;99.90;;;;;;4992994;28;20157;-47
2022/03/19 06:07:28;;;;;;;15.57;6.07;;;4.80;99.90;;;;;;5006871;28;20033;-52
2022/03/19 06:10:13;;;;;;;22.30;6.13;;;4.70;99.90;;;;;;4985755;28;20045;-49
2022/03/19 06:12:56;;;;;;;10.90;5.93;;;4.70;99.90;;;;;;4974946;28;20045;-51
2022/03/19 06:15:41;;;;;;;22.95;7.63;;;4.70;99.90;;;;;;4994021;28;20077;-46
2022/03/19 06:18:24;;;;;;;22.63;8.35;;;4.60;99.90;;;;;;4991376;28;20041;-48
2022/03/19 06:21:08;;;;;;;17.13;6.07;;;4.70;99.90;;;;;;4991518;28;20088;-45
2022/03/19 06:23:53;;;;;;;18.50;6.30;;;4.70;99.90;;;;;;5002733;28;20146;-47
2022/03/19 06:26:38;;;;;;;16.17;6.40;;;4.70;99.90;;;;;;4992746;28;20069;-47
2022/03/19 06:29:22;;;;;;;16.48;5.88;;;4.80;99.90;;;;;;4994157;28;20041;-50
2022/03/19 06:32:07;;;;;;;16.17;6.25;;;5.00;99.90;;;;;;4992699;28;20130;-50
2022/03/19 06:34:51;;;;;;;22.13;6.57;;;5.10;99.90;;;;;;4992755;28;20045;-49
2022/03/19 06:37:35;;;;;;;20.13;6.93;;;5.30;99.90;;;;;;4992335;28;20040;-49
2022/03/19 06:40:22;;;;;;;16.90;6.65;;;5.40;99.90;;;;;;4988048;28;20065;-47
2022/03/19 06:43:06;;;;;;;19.83;6.13;;;5.60;99.90;;;;;;4977685;28;20045;-53
2022/03/19 06:45:50;;;;;;;17.35;5.75;;;5.60;99.90;;;;;;4989166;28;20085;-52
2022/03/19 06:48:34;;;;;;;12.87;5.40;;;5.60;99.90;;;;;;4990058;28;20468;-55
2022/03/19 06:51:19;;;;;;;17.92;6.43;;;5.90;99.90;;;;;;4990937;28;20375;-49
2022/03/19 06:54:04;;;;;;;15.38;5.72;;;6.20;99.90;;;;;;4992150;28;20056;-48
2022/03/19 06:56:48;;;;;;;14.82;5.75;;;6.20;99.90;;;;;;5005551;28;20044;-49
2022/03/19 06:59:33;;;;;;;20.33;6.25;;;5.90;99.90;;;;;;4991867;28;20049;-49
2022/03/19 07:02:17;;;;;;;18.23;7.43;;;5.70;99.90;;;;;;4992385;28;20137;-46
2022/03/19 07:05:06;;;;;;;17.13;5.53;;;5.60;99.90;;;;;;4992797;28;20042;-51
2022/03/19 07:07:52;;;;;;;13.60;6.35;;;5.50;99.90;;;;;;4991757;28;20033;-48
2022/03/19 07:10:36;;;;;;;16.02;6.47;;;5.50;99.90;;;;;;4983508;28;20077;-47
2022/03/19 07:13:20;;;;;;;16.52;5.80;;;5.60;99.90;;;;;;4993245;28;20149;-48
2022/03/19 07:16:07;;;;;;;14.15;5.90;;;5.70;99.90;;;;;;4994452;28;20085;-50
2022/03/19 07:18:51;;;;;;;18.25;6.60;;;5.60;99.90;;;;;;4994537;28;20037;-46
2022/03/19 07:21:35;;;;;;;16.10;5.38;;;5.40;99.90;;;;;;4993668;28;20053;-49
2022/03/19 07:24:19;;;;;;;17.88;7.10;;;5.60;99.90;;;;;;4992572;28;20649;-51
2022/03/19 07:27:06;;;;;;;17.83;6.40;;;5.80;99.90;;;;;;4992724;28;20474;-51
2022/03/19 07:29:50;;;;;;;15.20;6.75;;;5.70;99.90;;;;;;4992928;28;20030;-53
2022/03/19 07:32:35;;;;;;;14.95;6.88;;;5.60;99.90;;;;;;5006171;28;20044;-47
2022/03/19 07:35:19;;;;;;;18.20;6.13;;;5.70;99.90;;;;;;4993033;28;20107;-49
2022/03/19 07:38:05;;;;;;;13.77;6.55;;;5.70;99.90;;;;;;4994136;28;20132;-46
2022/03/19 07:43:53;;;;;;;14.20;6.35;;;5.90;99.90;;;;;;4992151;28;20127;-48
2022/03/19 07:46:41;;;;;;;15.27;6.03;;;5.90;99.90;;;;;;4990885;28;20077;-46
2022/03/19 07:49:26;;;;;;;14.40;6.35;;;6.00;99.90;;;;;;4993212;28;20417;-49
2022/03/19 07:52:11;;;;;;;20.98;6.45;;;6.10;99.90;;;;;;4983558;28;20088;-50
2022/03/19 07:54:55;;;;;;;17.20;6.78;;;6.10;99.90;;;;;;4981946;28;20043;-50
2022/03/19 07:57:39;;;;;;;15.77;6.13;;;6.00;99.90;;;;;;4991060;28;20041;-50
2022/03/19 08:00:23;;;;;;;19.63;6.57;;;6.00;99.90;;;;;;4984648;28;20037;-49
2022/03/19 08:03:07;;;;;;;15.45;5.50;;;5.90;99.90;;;;;;4984446;28;20061;-52
2022/03/19 08:05:51;;;;;;;19.58;6.63;;;5.90;99.90;;;;;;4987222;28;20037;-53
2022/03/19 08:08:37;;;;;;;18.47;6.13;;;6.10;99.90;;;;;;5004370;28;20037;-52
2022/03/19 08:11:21;;;;;;;15.32;7.13;;;6.20;99.90;;;;;;4987534;28;20033;-53
2022/03/19 08:14:06;;;;;;;15.48;6.15;;;6.20;99.90;;;;;;4975816;28;20406;-50
2022/03/19 08:16:52;;;;;;;19.38;6.53;;;6.30;99.90;;;;;;4972182;28;20089;-51
2022/03/19 08:19:37;;;;;;;15.10;5.95;;;6.50;99.90;;;;;;4978662;28;20048;-52
2022/03/19 08:22:21;;;;;;;14.18;6.50;;;6.50;99.90;;;;;;4991915;28;20118;-50
2022/03/19 08:25:06;;;;;;;15.73;7.10;;;6.60;99.90;;;;;;4990935;28;20153;-54
2022/03/19 08:27:54;;;;;;;19.13;7.38;;;6.70;99.90;;;;;;4989250;28;20057;-49
2022/03/19 08:30:38;;;;;;;15.18;6.05;;;6.90;99.90;;;;;;4991304;28;20069;-50
2022/03/19 08:33:22;;;;;;;21.67;7.15;;;7.10;99.90;;;;;;4990804;28;20041;-48
2022/03/19 08:36:06;;;;;;;16.48;5.75;;;6.90;99.90;;;;;;4991610;28;20081;-52
2022/03/19 08:41:54;;;;;;;17.75;6.80;;;7.10;99.90;;;;;;4990595;28;20073;-51
2022/03/19 08:44:39;;;;;;;17.88;6.85;;;7.00;99.90;;;;;;5004894;28;20438;-48
2022/03/19 08:47:23;;;;;;;15.15;6.10;;;7.00;99.90;;;;;;4990689;28;20046;-53
2022/03/19 08:50:07;;;;;;;11.88;5.50;;;7.10;99.90;;;;;;4992059;28;20057;-50
2022/03/19 08:52:51;;;;;;;14.35;6.03;;;7.10;99.90;;;;;;4975135;28;20070;-50
2022/03/19 08:55:36;;;;;;;20.05;6.38;;;7.20;99.90;;;;;;4990912;28;20097;-50
2022/03/19 08:58:19;;;;;;;20.10;6.22;;;7.40;99.80;;;;;;4978909;28;20046;-50
2022/03/19 09:01:04;;;;;;;21.20;6.20;;;7.50;99.40;;;;;;4986752;28;20482;-47
2022/03/19 09:03:48;;;;;;;15.95;6.05;;;7.60;99.50;;;;;;4990274;28;20046;-49
2022/03/19 09:06:33;;;;;;;20.35;5.75;;;7.80;98.80;;;;;;4977165;28;20442;-50
2022/03/19 09:09:19;;;;;;;19.27;6.70;;;7.70;98.80;;;;;;4984136;28;20069;-48
2022/03/19 09:12:04;;;;;;;16.80;6.60;;;7.80;98.90;;;;;;4997672;28;20102;-51
2022/03/19 09:14:48;;;;;;;15.00;6.70;;;8.00;98.10;;;;;;4994604;28;20699;-50
2022/03/19 09:17:33;;;;;;;20.63;5.70;;;8.20;98.00;;;;;;4995249;28;20045;-53
2022/03/19 09:20:17;;;;;;;15.65;6.53;;;8.20;97.60;;;;;;4994629;28;20077;-48
2022/03/19 09:23:03;;;;;;;16.42;6.22;;;8.20;97.80;;;;;;4994503;28;20053;-48
2022/03/19 09:25:47;;;;;;;16.00;6.38;;;8.20;97.20;;;;;;4975793;28;20034;-52
2022/03/19 09:28:31;;;;;;;18.38;6.25;;;8.10;97.60;;;;;;4977580;28;20029;-49
2022/03/19 09:31:18;;;;;;;14.68;6.40;;;8.30;97.40;;;;;;4988553;28;20089;-48
2022/03/19 09:34:02;;;;;;;17.10;6.18;;;8.40;97.20;;;;;;4993322;28;20053;-52
2022/03/19 09:36:47;;;;;;;13.80;5.60;;;8.50;96.90;;;;;;4995187;28;20045;-52
2022/03/19 09:39:31;;;;;;;14.93;7.03;;;8.50;96.70;;;;;;4994769;28;20856;-52
2022/03/19 09:42:15;;;;;;;13.73;5.87;;;8.40;97.10;;;;;;4988334;28;20069;-48
2022/03/19 09:44:59;;;;;;;10.85;5.75;;;8.50;96.30;;;;;;4994790;28;20131;-52
2022/03/19 09:47:43;;;;;;;17.52;6.10;;;8.60;96.40;;;;;;4995530;28;20033;-54
2022/03/19 09:50:28;;;;;;;18.15;5.80;;;8.60;96.50;;;;;;4993679;28;20069;-51
2022/03/19 09:53:16;;;;;;;13.73;5.28;;;8.90;96.50;;;;;;4994026;28;20045;-53
2022/03/19 09:56:03;;;;;;;18.38;5.97;;;8.80;96.30;;;;;;4974013;28;20078;-52
2022/03/19 09:58:48;;;;;;;13.40;5.80;;;8.70;96.60;;;;;;4988410;28;20072;-47
2022/03/19 10:01:33;;;;;;;14.73;5.68;;;8.80;96.40;;;;;;4991896;28;20041;-53
2022/03/19 10:04:20;;;;;;;15.02;6.10;;;8.80;96.20;;;;;;4990215;28;20041;-49
2022/03/19 10:10:08;;;;;;;9.82;5.10;;;8.80;96.40;;;;;;4991819;28;20061;-50
2022/03/19 10:12:53;;;;;;;15.52;5.55;;;8.90;96.50;;;;;;4992527;28;20033;-56
2022/03/19 10:15:41;;;;;;;12.82;5.10;;;8.90;96.00;;;;;;4990883;28;20121;-46
2022/03/19 10:18:30;;;;;;;17.58;5.95;;;8.90;94.70;;;;;;4993481;28;20462;-48
2022/03/19 10:21:16;;;;;;;12.52;5.43;;;9.10;94.30;;;;;;4987341;28;20117;-49
2022/03/19 10:24:01;;;;;;;12.45;5.25;;;9.40;94.60;;;;;;4991905;28;20519;-52
2022/03/19 10:26:48;;;;;;;12.30;4.38;;;9.40;94.70;;;;;;4992234;28;20387;-50
2022/03/19 10:29:35;;;;;;;11.13;4.80;;;9.70;94.10;;;;;;4990973;28;20394;-53
2022/03/19 10:32:20;;;;;;;12.27;4.55;;;9.70;93.60;;;;;;4993321;28;20085;-51
2022/03/19 10:35:04;;;;;;;9.80;3.92;;;9.80;92.90;;;;;;4994683;28;20042;-49
2022/03/19 10:37:49;;;;;;;11.18;3.25;;;9.70;89.60;;;;;;4993862;28;20564;-56
2022/03/19 10:40:41;;;;;;;10.37;4.33;;;9.60;87.40;;;;;;4993404;28;20037;-51
2022/03/19 10:43:27;;;;;;;7.85;3.50;;;9.70;86.80;;;;;;4994909;28;20297;-56
2022/03/19 10:46:11;;;;;;;9.90;4.10;;;9.60;85.70;;;;;;4995054;28;20120;-51
2022/03/19 10:48:59;;;;;;;10.70;3.75;;;9.70;85.30;;;;;;4993687;28;20418;-49
2022/03/19 10:51:44;;;;;;;13.90;3.72;;;10.00;85.30;;;;;;4992863;28;20085;-49
2022/03/19 10:54:30;;;;;;;9.63;3.75;;;10.00;86.60;;;;;;4990823;28;20419;-47
2022/03/19 10:57:15;;;;;;;10.27;4.07;;;10.10;85.50;;;;;;4990984;28;20570;-46
2022/03/19 10:59:59;;;;;;;10.52;3.78;;;10.10;84.90;;;;;;5001764;28;20125;-51
2022/03/19 11:02:45;;;;;;;17.00;5.50;;;10.30;84.30;;;;;;4988782;28;20081;-56
2022/03/19 11:05:34;;;;;;;9.52;3.67;;;10.30;84.20;;;;;;4991614;28;20521;-54
2022/03/19 11:08:22;;;;;;;11.27;3.78;;;10.40;82.50;;;;;;4990009;28;20030;-53
2022/03/19 11:11:22;;;;;;;12.73;5.30;;;10.60;82.00;;;;;;4993003;28;20042;-51
2022/03/19 11:14:10;;;;;;;21.58;5.90;;;10.90;80.50;;;;;;4973316;28;20077;-53
2022/03/19 11:17:27;;;;;;;11.55;4.63;;;10.90;78.40;;;;;;4992658;28;20045;-54
2022/03/19 11:20:13;;;;;;;12.10;4.45;;;10.60;77.70;;;;;;4985070;28;20537;-52
2022/03/19 11:22:59;;;;;;;10.52;3.85;;;10.40;76.90;;;;;;4993471;28;20045;-50
2022/03/19 11:25:53;;;;;;;11.68;3.75;;;10.40;77.60;;;;;;4985245;28;20446;-52
2022/03/19 11:28:37;;;;;;;9.43;3.85;;;10.40;75.70;;;;;;4992911;28;20475;-52
2022/03/19 11:31:28;;;;;;;8.68;3.65;;;10.60;76.40;;;;;;4991409;28;20061;-51
2022/03/19 11:34:17;;;;;;;9.50;3.47;;;10.60;74.60;;;;;;4991504;28;20171;-48
2022/03/19 11:37:02;;;;;;;9.50;3.70;;;10.60;75.40;;;;;;4989251;28;20049;-49
2022/03/19 11:40:28;;;;;;;10.85;3.67;;;10.60;76.60;;;;;;4990527;28;20057;-48
2022/03/19 11:43:26;;;;;;;7.25;3.15;;;10.40;72.70;;;;;;5004650;28;20320;-52
2022/03/19 11:46:12;;;;;;;9.45;3.40;;;10.30;73.20;;;;;;4992174;28;20141;-55
2022/03/19 11:48:56;;;;;;;10.43;3.60;;;10.20;73.60;;;;;;4992001;28;20117;-49
2022/03/19 11:51:40;;;;;;;9.27;3.23;;;10.10;74.30;;;;;;5001820;28;20096;-49
2022/03/19 11:54:24;;;;;;;6.73;3.50;;;9.90;76.50;;;;;;4990613;28;20564;-52
2022/03/19 11:57:09;;;;;;;12.83;4.07;;;9.70;78.30;;;;;;4987040;28;20108;-55
2022/03/19 11:59:59;;;;;;;6.07;3.30;;;9.70;79.50;;;;;;4984371;28;20066;-55
2022/03/19 12:03:12;;;;;;;7.00;3.17;;;9.90;77.70;;;;;;4985621;28;20057;-50
2022/03/19 12:05:56;;;;;;;7.38;3.22;;;10.00;77.10;;;;;;4991555;28;20529;-54
2022/03/19 12:08:48;;;;;;;11.20;3.72;;;10.10;76.00;;;;;;4991099;28;20033;-52
2022/03/19 12:11:36;;;;;;;10.93;3.65;;;10.10;76.00;;;;;;4987809;28;20048;-52
2022/03/19 12:14:23;;;;;;;12.02;3.78;;;10.10;76.60;;;;;;4988659;28;20439;-56
2022/03/19 12:17:21;;;;;;;6.38;3.33;;;10.00;77.00;;;;;;4990654;28;20085;-51
2022/03/19 12:20:07;;;;;;;8.85;3.13;;;10.00;77.40;;;;;;4992129;28;20089;-54
2022/03/19 12:22:55;;;;;;;8.85;3.50;;;10.20;77.90;;;;;;4987997;28;20072;-51
2022/03/19 12:25:49;;;;;;;9.00;3.45;;;10.30;78.00;;;;;;4986007;28;20096;-49
2022/03/19 12:28:33;;;;;;;9.05;3.42;;;10.70;76.10;;;;;;4986302;28;20045;-53
2022/03/19 12:31:17;;;;;;;9.23;3.88;;;10.70;75.40;;;;;;4981133;28;20442;-50
2022/03/19 12:34:02;;;;;;;7.18;3.50;;;10.80;75.00;;;;;;5002441;28;20402;-54
2022/03/19 12:36:46;;;;;;;;;;;10.80;75.40;;;;;;4988616;28;20037;-54
2022/03/19 12:39:31;;;;;;;7.93;3.88;;;10.70;75.30;;;;;;4982097;28;19953;-51
2022/03/19 12:42:34;;;;;;;8.45;3.53;;;10.60;75.60;;;;;;4988663;28;20049;-49
2022/03/19 12:45:20;;;;;;;6.20;3.13;;;10.40;76.70;;;;;;4995601;28;20121;-54
2022/03/19 12:48:11;;;;;;;9.70;3.65;;;10.40;75.70;;;;;;4995862;28;20029;-53
2022/03/19 12:50:57;;;;;;;9.00;3.47;;;10.40;74.70;;;;;;4996632;28;20040;-48
2022/03/19 12:53:41;;;;;;;6.07;3.83;;;10.40;75.20;;;;;;4995890;28;20089;-52
2022/03/19 12:56:28;;;;;;;7.57;3.88;;;10.30;75.30;;;;;;4976094;28;20041;-50
2022/03/19 12:59:18;;;;;;;17.83;5.15;;;10.40;75.60;;;;;;4992062;28;20053;-49
2022/03/19 13:02:03;;;;;;;8.15;4.13;;;10.50;76.00;;;;;;4974733;28;20077;-51
2022/03/19 13:04:48;;;;;;;9.70;4.20;;;10.30;76.70;;;;;;4995975;28;20069;-47
2022/03/19 13:07:32;;;;;;;14.82;5.63;;;10.30;77.80;;;;;;4995466;28;20033;-49
2022/03/19 13:10:17;;;;;;;11.80;4.75;;;10.60;77.70;;;;;;4995852;28;20135;-51
2022/03/19 13:13:08;;;;;;;10.52;5.13;;;10.50;78.20;;;;;;4994103;28;20097;-52
2022/03/19 13:15:54;;;;;;;12.15;5.22;;;10.60;78.20;;;;;;5008317;28;20116;-53
2022/03/19 13:18:42;;;;;;;12.95;6.13;;;10.80;78.20;;;;;;4994502;28;20042;-52
2022/03/19 13:21:28;;;;;;;9.88;5.82;;;10.80;79.30;;;;;;4995654;28;20045;-50
2022/03/19 13:24:13;;;;;;;9.70;5.85;;;10.80;78.70;;;;;;4996673;28;20651;-53
2022/03/19 13:26:57;;;;;;;10.55;6.43;;;10.70;79.60;;;;;;4999690;28;20501;-54
2022/03/19 13:29:42;;;;;;;14.25;6.43;;;10.60;80.30;;;;;;5007339;28;20097;-51
2022/03/19 13:32:26;;;;;;;16.65;6.50;;;10.50;80.80;;;;;;4995283;28;20093;-52
2022/03/19 13:35:10;;;;;;;13.63;7.75;;;10.50;81.60;;;;;;4985514;28;20394;-53
2022/03/19 13:37:55;;;;;;;16.08;10.20;;;10.50;81.70;;;;;;5008478;28;20698;-50
2022/03/19 13:40:39;;;;;;;15.63;9.45;;;10.40;81.40;;;;;;5007494;28;20045;-50
2022/03/19 13:43:36;;;;;;;18.30;9.73;;;10.40;81.70;;;;;;4994470;28;20061;-52
2022/03/19 13:46:22;;;;;;;14.00;9.50;;;10.50;81.90;;;;;;4994513;28;20033;-53
2022/03/19 13:49:14;;;;;;;19.85;11.52;;;10.90;81.40;;;;;;4994574;28;20121;-50
2022/03/19 13:51:58;;;;;;;21.77;12.07;;;11.20;80.20;;;;;;5006554;28;20033;-52
2022/03/19 13:54:44;;;;;;;19.00;12.33;;;11.40;79.50;;;;;;4994451;28;20041;-53
2022/03/19 13:57:43;;;;;;;24.33;13.32;;;11.60;78.60;;;;;;4994225;28;20033;-54
2022/03/19 14:00:33;;;;;;;20.50;10.90;;;11.80;78.20;;;;;;4993877;28;20073;-52
2022/03/19 14:03:24;;;;;;;20.27;12.10;;;11.90;78.20;;;;;;4993424;28;20486;-51
2022/03/19 14:06:09;;;;;;;18.75;11.73;;;11.90;78.30;;;;;;4994542;28;20042;-53
2022/03/19 14:08:58;;;;;;;17.25;11.30;;;12.10;78.20;;;;;;4994274;28;20512;-53
2022/03/19 14:11:44;;;;;;;19.55;11.85;;;12.20;76.70;;;;;;4994576;28;20116;-53
2022/03/19 14:14:36;;;;;;;21.98;14.95;;;11.70;78.30;;;;;;4994703;28;20041;-54
2022/03/19 14:17:21;;;;;;;20.15;14.02;;;11.40;77.10;;;;;;4994571;28;20040;-53
2022/03/19 14:20:05;;;;;;;18.17;13.25;;;10.90;77.40;;;;;;5007522;28;20041;-53
2022/03/19 14:22:50;;;;;;;20.02;13.13;;;11.00;79.30;;;;;;4993461;28;20479;-52
2022/03/19 14:25:35;;;;;;;19.02;15.07;;;11.10;78.10;;;;;;4993252;28;20065;-51
2022/03/19 14:28:21;;;;;;;17.97;14.07;;;11.10;77.90;;;;;;4994714;28;20080;-52
2022/03/19 14:31:05;;;;;;;19.40;14.35;;;11.30;77.60;;;;;;4994475;28;20065;-54
2022/03/19 14:33:49;;;;;;;26.58;13.13;;;11.60;77.40;;;;;;4993675;28;20096;-54
2022/03/19 14:36:33;;;;;;;17.20;12.75;;;11.90;76.90;;;;;;4993640;28;20045;-52